sensor_id;sensor_type;location;lat;lon;timestamp;pressure;altitude;pressure_sealevel;temperature;humidity
80627;BME280;69982;51.758;5.784;2023-07-29T13:24:04;100746.86;;;20.86;72.87
80627;BME280;69982;51.758;5.784;2023-07-29T13:26:30;100738.48;;;21.10;74.27
80627;BME280;69982;51.758;5.784;2023-07-29T13:28:56;100735.52;;;21.37;73.72
80627;BME280;69982;51.758;5.784;2023-07-29T13:31:22;100736.65;;;21.64;72.75
80627;BME280;69982;51.758;5.784;2023-07-29T13:33:49;100741.15;;;21.91;72.47
80627;BME280;69982;51.758;5.784;2023-07-29T13:36:15;100745.37;;;22.17;71.99
80627;BME280;69982;51.758;5.784;2023-07-29T13:38:41;100747.65;;;22.36;71.81
80627;BME280;69982;51.758;5.784;2023-07-29T13:41:07;100748.05;;;22.53;70.04
80627;BME280;69982;51.758;5.784;2023-07-29T13:43:34;100745.82;;;22.64;69.04
80627;BME280;69982;51.758;5.784;2023-07-29T13:46:00;100745.36;;;22.75;68.32
80627;BME280;69982;51.758;5.784;2023-07-29T13:48:26;100738.41;;;22.74;67.33
80627;BME280;69982;51.758;5.784;2023-07-29T13:50:52;100740.69;;;22.71;67.68
80627;BME280;69982;51.758;5.784;2023-07-29T13:53:19;100739.34;;;22.74;67.34
80627;BME280;69982;51.758;5.784;2023-07-29T13:55:45;100747.64;;;22.81;67.47
80627;BME280;69982;51.758;5.784;2023-07-29T13:58:11;100742.55;;;22.93;67.64
80627;BME280;69982;51.758;5.784;2023-07-29T14:00:38;100728.36;;;23.08;67.16
80627;BME280;69982;51.758;5.784;2023-07-29T14:03:04;100729.40;;;23.24;67.10
80627;BME280;69982;51.758;5.784;2023-07-29T14:05:30;100729.30;;;23.46;66.55
80627;BME280;69982;51.758;5.784;2023-07-29T14:07:56;100733.20;;;23.59;65.81
80627;BME280;69982;51.758;5.784;2023-07-29T14:10:23;100734.13;;;23.77;65.02
80627;BME280;69982;51.758;5.784;2023-07-29T14:12:49;100730.52;;;23.94;64.80
80627;BME280;69982;51.758;5.784;2023-07-29T14:15:16;100729.13;;;24.14;64.40
80627;BME280;69982;51.758;5.784;2023-07-29T14:17:42;100727.91;;;24.35;63.89
80627;BME280;69982;51.758;5.784;2023-07-29T14:20:09;100725.84;;;24.53;63.23
80627;BME280;69982;51.758;5.784;2023-07-29T14:22:36;100713.76;;;24.72;62.87
80627;BME280;69982;51.758;5.784;2023-07-29T14:25:02;100708.72;;;24.90;61.76
80627;BME280;69982;51.758;5.784;2023-07-29T14:27:28;100707.31;;;25.11;61.32
80627;BME280;69982;51.758;5.784;2023-07-29T14:29:55;100709.86;;;25.24;60.17
80627;BME280;69982;51.758;5.784;2023-07-29T14:32:21;100713.42;;;25.24;59.16
80627;BME280;69982;51.758;5.784;2023-07-29T14:34:48;100717.02;;;25.30;59.00
80627;BME280;69982;51.758;5.784;2023-07-29T14:37:15;100711.41;;;25.37;59.39
80627;BME280;69982;51.758;5.784;2023-07-29T14:39:41;100709.31;;;25.39;58.88
80627;BME280;69982;51.758;5.784;2023-07-29T14:42:08;100707.34;;;25.52;59.64
80627;BME280;69982;51.758;5.784;2023-07-29T14:44:34;100711.80;;;25.62;58.90
80627;BME280;69982;51.758;5.784;2023-07-29T14:47:00;100712.97;;;25.75;58.53
80627;BME280;69982;51.758;5.784;2023-07-29T14:49:27;100714.06;;;25.82;57.74
80627;BME280;69982;51.758;5.784;2023-07-29T14:51:53;100718.00;;;25.81;57.32
80627;BME280;69982;51.758;5.784;2023-07-29T14:54:19;100719.98;;;25.79;57.51
80627;BME280;69982;51.758;5.784;2023-07-29T14:56:46;100714.09;;;25.78;57.05
80627;BME280;69982;51.758;5.784;2023-07-29T14:59:12;100717.14;;;25.85;57.21
80627;BME280;69982;51.758;5.784;2023-07-29T15:01:38;100714.70;;;25.89;56.07
80627;BME280;69982;51.758;5.784;2023-07-29T15:04:04;100719.95;;;25.90;55.23
80627;BME280;69982;51.758;5.784;2023-07-29T15:06:31;100718.77;;;25.79;55.21
80627;BME280;69982;51.758;5.784;2023-07-29T15:08:57;100713.05;;;25.79;55.53
80627;BME280;69982;51.758;5.784;2023-07-29T15:11:23;100714.92;;;25.89;56.41
80627;BME280;69982;51.758;5.784;2023-07-29T15:13:50;100722.80;;;25.96;56.12
80627;BME280;69982;51.758;5.784;2023-07-29T15:16:16;100718.02;;;25.95;56.37
80627;BME280;69982;51.758;5.784;2023-07-29T15:18:42;100708.40;;;26.00;55.71
80627;BME280;69982;51.758;5.784;2023-07-29T15:21:08;100710.35;;;25.96;55.76
80627;BME280;69982;51.758;5.784;2023-07-29T15:23:35;100710.04;;;25.89;54.96
80627;BME280;69982;51.758;5.784;2023-07-29T15:26:01;100703.44;;;25.72;54.94
80627;BME280;69982;51.758;5.784;2023-07-29T15:28:28;100703.95;;;25.59;54.94
80627;BME280;69982;51.758;5.784;2023-07-29T15:30:54;100703.79;;;25.44;55.62
80627;BME280;69982;51.758;5.784;2023-07-29T15:33:20;100693.48;;;25.35;56.11
80627;BME280;69982;51.758;5.784;2023-07-29T15:35:46;100688.47;;;25.31;56.22
80627;BME280;69982;51.758;5.784;2023-07-29T15:38:14;100685.75;;;25.24;56.33
80627;BME280;69982;51.758;5.784;2023-07-29T15:40:41;100680.30;;;25.16;56.93
80627;BME280;69982;51.758;5.784;2023-07-29T15:43:07;100683.82;;;25.11;57.19
80627;BME280;69982;51.758;5.784;2023-07-29T15:45:33;100686.83;;;25.06;57.26
80627;BME280;69982;51.758;5.784;2023-07-29T15:47:59;100685.20;;;24.98;57.50
80627;BME280;69982;51.758;5.784;2023-07-29T15:50:26;100685.16;;;24.90;58.13
80627;BME280;69982;51.758;5.784;2023-07-29T15:52:52;100685.47;;;24.81;57.15
80627;BME280;69982;51.758;5.784;2023-07-29T15:55:18;100681.39;;;24.72;56.95
80627;BME280;69982;51.758;5.784;2023-07-29T15:57:45;100683.71;;;24.61;56.91
80627;BME280;69982;51.758;5.784;2023-07-29T16:00:12;100687.58;;;24.46;56.98
80627;BME280;69982;51.758;5.784;2023-07-29T16:02:38;100684.61;;;24.35;57.62
80627;BME280;69982;51.758;5.784;2023-07-29T16:05:07;100686.91;;;24.28;57.99
80627;BME280;69982;51.758;5.784;2023-07-29T16:07:34;100687.94;;;24.22;58.24
80627;BME280;69982;51.758;5.784;2023-07-29T16:10:00;100691.14;;;24.16;58.85
80627;BME280;69982;51.758;5.784;2023-07-29T16:12:26;100683.49;;;24.08;59.23
80627;BME280;69982;51.758;5.784;2023-07-29T16:14:52;100680.40;;;23.95;59.29
80627;BME280;69982;51.758;5.784;2023-07-29T16:17:19;100686.70;;;23.85;60.36
80627;BME280;69982;51.758;5.784;2023-07-29T16:19:56;100686.98;;;23.76;61.27
80627;BME280;69982;51.758;5.784;2023-07-29T16:22:23;100699.52;;;23.62;61.32
80627;BME280;69982;51.758;5.784;2023-07-29T16:24:49;100706.61;;;23.51;62.06
80627;BME280;69982;51.758;5.784;2023-07-29T16:27:16;100705.42;;;23.40;62.71
80627;BME280;69982;51.758;5.784;2023-07-29T16:29:42;100719.24;;;23.26;63.35
80627;BME280;69982;51.758;5.784;2023-07-29T16:32:09;100720.27;;;23.05;63.55
80627;BME280;69982;51.758;5.784;2023-07-29T16:34:36;100717.59;;;22.94;64.22
80627;BME280;69982;51.758;5.784;2023-07-29T16:37:02;100707.11;;;22.89;64.42
80627;BME280;69982;51.758;5.784;2023-07-29T16:39:28;100700.54;;;22.84;64.44
80627;BME280;69982;51.758;5.784;2023-07-29T16:41:55;100693.80;;;22.79;65.55
80627;BME280;69982;51.758;5.784;2023-07-29T16:44:24;100689.28;;;22.81;65.78
80627;BME280;69982;51.758;5.784;2023-07-29T16:46:50;100682.08;;;22.87;65.81
80627;BME280;69982;51.758;5.784;2023-07-29T16:49:16;100677.33;;;22.90;65.77
80627;BME280;69982;51.758;5.784;2023-07-29T16:51:49;100683.92;;;22.98;66.56
80627;BME280;69982;51.758;5.784;2023-07-29T16:54:16;100684.45;;;23.02;65.69
80627;BME280;69982;51.758;5.784;2023-07-29T16:56:45;100685.23;;;23.00;65.39
80627;BME280;69982;51.758;5.784;2023-07-29T16:59:13;100683.81;;;22.97;65.57
80627;BME280;69982;51.758;5.784;2023-07-29T17:01:39;100675.93;;;22.99;66.61
80627;BME280;69982;51.758;5.784;2023-07-29T17:04:05;100677.34;;;23.01;65.73
80627;BME280;69982;51.758;5.784;2023-07-29T17:06:32;100670.14;;;22.98;65.64
80627;BME280;69982;51.758;5.784;2023-07-29T17:08:58;100666.70;;;22.97;66.34
80627;BME280;69982;51.758;5.784;2023-07-29T17:11:24;100659.27;;;22.97;66.37
80627;BME280;69982;51.758;5.784;2023-07-29T17:13:50;100655.25;;;22.95;65.80
80627;BME280;69982;51.758;5.784;2023-07-29T17:16:17;100661.24;;;22.95;65.58
80627;BME280;69982;51.758;5.784;2023-07-29T17:18:43;100664.16;;;22.94;65.84
80627;BME280;69982;51.758;5.784;2023-07-29T17:21:09;100665.62;;;22.99;66.46
80627;BME280;69982;51.758;5.784;2023-07-29T17:23:35;100666.13;;;23.03;65.90
80627;BME280;69982;51.758;5.784;2023-07-29T17:26:01;100674.30;;;23.04;65.68
80627;BME280;69982;51.758;5.784;2023-07-29T17:28:28;100669.09;;;23.01;64.97
80627;BME280;69982;51.758;5.784;2023-07-29T17:30:54;100669.03;;;22.97;64.44
80627;BME280;69982;51.758;5.784;2023-07-29T17:33:20;100669.95;;;22.93;64.54
80627;BME280;69982;51.758;5.784;2023-07-29T17:35:46;100673.35;;;22.88;64.41
80627;BME280;69982;51.758;5.784;2023-07-29T17:38:13;100685.88;;;22.85;64.50
80627;BME280;69982;51.758;5.784;2023-07-29T17:40:40;100682.93;;;22.81;64.66
80627;BME280;69982;51.758;5.784;2023-07-29T17:43:07;100682.15;;;22.84;65.02
80627;BME280;69982;51.758;5.784;2023-07-29T17:45:33;100683.31;;;22.87;65.23
80627;BME280;69982;51.758;5.784;2023-07-29T17:47:59;100685.40;;;22.90;65.14
80627;BME280;69982;51.758;5.784;2023-07-29T17:50:26;100691.20;;;22.92;64.90
80627;BME280;69982;51.758;5.784;2023-07-29T17:52:53;100694.33;;;22.94;65.01
80627;BME280;69982;51.758;5.784;2023-07-29T17:55:21;100696.92;;;22.93;65.19
80627;BME280;69982;51.758;5.784;2023-07-29T17:57:47;100694.50;;;22.87;65.56
80627;BME280;69982;51.758;5.784;2023-07-29T18:00:14;100688.71;;;22.85;65.54
80627;BME280;69982;51.758;5.784;2023-07-29T18:02:40;100695.40;;;22.85;65.74
80627;BME280;69982;51.758;5.784;2023-07-29T18:05:07;100695.02;;;22.85;65.92
80627;BME280;69982;51.758;5.784;2023-07-29T18:07:33;100698.75;;;22.86;65.88
80627;BME280;69982;51.758;5.784;2023-07-29T18:09:59;100699.85;;;22.86;66.12
80627;BME280;69982;51.758;5.784;2023-07-29T18:12:25;100695.04;;;22.90;66.31
80627;BME280;69982;51.758;5.784;2023-07-29T18:14:52;100692.23;;;22.91;66.33
80627;BME280;69982;51.758;5.784;2023-07-29T18:17:18;100689.43;;;22.89;66.62
80627;BME280;69982;51.758;5.784;2023-07-29T18:19:44;100690.09;;;22.91;66.21
80627;BME280;69982;51.758;5.784;2023-07-29T18:22:11;100690.55;;;22.90;66.06
80627;BME280;69982;51.758;5.784;2023-07-29T18:24:37;100697.13;;;22.92;66.17
80627;BME280;69982;51.758;5.784;2023-07-29T18:27:04;100698.14;;;22.93;66.18
80627;BME280;69982;51.758;5.784;2023-07-29T18:29:32;100694.98;;;22.92;66.94
80627;BME280;69982;51.758;5.784;2023-07-29T18:31:58;100695.32;;;22.90;66.65
80627;BME280;69982;51.758;5.784;2023-07-29T18:34:24;100696.92;;;22.89;66.84
80627;BME280;69982;51.758;5.784;2023-07-29T18:36:50;100698.81;;;22.90;66.74
80627;BME280;69982;51.758;5.784;2023-07-29T18:39:17;100702.73;;;22.93;66.63
80627;BME280;69982;51.758;5.784;2023-07-29T18:41:43;100701.66;;;22.94;66.75
80627;BME280;69982;51.758;5.784;2023-07-29T18:44:09;100702.68;;;22.99;66.76
80627;BME280;69982;51.758;5.784;2023-07-29T18:46:35;100707.71;;;22.99;66.54
80627;BME280;69982;51.758;5.784;2023-07-29T18:49:02;100710.27;;;22.99;66.55
80627;BME280;69982;51.758;5.784;2023-07-29T18:51:31;100712.95;;;22.98;66.79
80627;BME280;69982;51.758;5.784;2023-07-29T18:53:57;100711.47;;;22.92;67.11
80627;BME280;69982;51.758;5.784;2023-07-29T18:56:24;100710.73;;;22.87;67.03
80627;BME280;69982;51.758;5.784;2023-07-29T18:58:50;100716.60;;;22.88;67.16
80627;BME280;69982;51.758;5.784;2023-07-29T19:01:16;100717.10;;;22.85;67.36
80627;BME280;69982;51.758;5.784;2023-07-29T19:03:43;100719.08;;;22.84;66.73
80627;BME280;69982;51.758;5.784;2023-07-29T19:06:09;100721.28;;;22.80;66.17
80627;BME280;69982;51.758;5.784;2023-07-29T19:08:36;100727.52;;;22.69;65.68
80627;BME280;69982;51.758;5.784;2023-07-29T19:11:02;100738.68;;;22.58;65.21
80627;BME280;69982;51.758;5.784;2023-07-29T19:13:29;100740.77;;;22.46;64.86
80627;BME280;69982;51.758;5.784;2023-07-29T19:15:55;100738.29;;;22.30;64.10
80627;BME280;69982;51.758;5.784;2023-07-29T19:18:24;100748.58;;;22.20;64.47
80627;BME280;69982;51.758;5.784;2023-07-29T19:20:52;100753.92;;;22.09;64.76
80627;BME280;69982;51.758;5.784;2023-07-29T19:23:19;100756.28;;;22.01;65.03
80627;BME280;69982;51.758;5.784;2023-07-29T19:25:47;100760.85;;;21.95;65.35
80627;BME280;69982;51.758;5.784;2023-07-29T19:28:14;100763.09;;;21.89;65.46
80627;BME280;69982;51.758;5.784;2023-07-29T19:30:40;100766.54;;;21.82;65.65
80627;BME280;69982;51.758;5.784;2023-07-29T19:33:07;100769.18;;;21.75;65.67
80627;BME280;69982;51.758;5.784;2023-07-29T19:35:33;100770.46;;;21.68;65.26
80627;BME280;69982;51.758;5.784;2023-07-29T19:38:00;100778.25;;;21.58;65.33
80627;BME280;69982;51.758;5.784;2023-07-29T19:40:26;100777.09;;;21.49;65.05
80627;BME280;69982;51.758;5.784;2023-07-29T19:42:54;100786.00;;;21.41;64.26
80627;BME280;69982;51.758;5.784;2023-07-29T19:45:20;100783.91;;;21.28;63.90
80627;BME280;69982;51.758;5.784;2023-07-29T19:47:47;100792.76;;;21.19;63.54
80627;BME280;69982;51.758;5.784;2023-07-29T19:50:14;100794.36;;;21.08;63.15
80627;BME280;69982;51.758;5.784;2023-07-29T19:52:40;100801.02;;;20.97;62.54
80627;BME280;69982;51.758;5.784;2023-07-29T19:55:07;100803.15;;;20.86;62.35
80627;BME280;69982;51.758;5.784;2023-07-29T19:57:33;100804.32;;;20.75;62.21
80627;BME280;69982;51.758;5.784;2023-07-29T20:00:00;100802.48;;;20.64;62.26
80627;BME280;69982;51.758;5.784;2023-07-29T20:02:26;100801.81;;;20.56;61.87
80627;BME280;69982;51.758;5.784;2023-07-29T20:04:54;100804.02;;;20.49;61.76
80627;BME280;69982;51.758;5.784;2023-07-29T20:07:22;100806.53;;;20.42;62.17
80627;BME280;69982;51.758;5.784;2023-07-29T20:09:49;100808.48;;;20.38;62.50
80627;BME280;69982;51.758;5.784;2023-07-29T20:12:15;100812.64;;;20.33;63.08
80627;BME280;69982;51.758;5.784;2023-07-29T20:14:42;100809.63;;;20.26;63.00
80627;BME280;69982;51.758;5.784;2023-07-29T20:17:08;100809.70;;;20.20;62.90
80627;BME280;69982;51.758;5.784;2023-07-29T20:19:34;100811.93;;;20.17;63.01
80627;BME280;69982;51.758;5.784;2023-07-29T20:22:01;100809.17;;;20.10;63.37
80627;BME280;69982;51.758;5.784;2023-07-29T20:24:27;100807.86;;;20.02;64.19
80627;BME280;69982;51.758;5.784;2023-07-29T20:26:53;100802.34;;;19.99;63.79
80627;BME280;69982;51.758;5.784;2023-07-29T20:29:19;100803.25;;;19.94;63.82
80627;BME280;69982;51.758;5.784;2023-07-29T20:31:46;100806.27;;;19.92;64.00
80627;BME280;69982;51.758;5.784;2023-07-29T20:34:14;100805.16;;;19.89;63.76
80627;BME280;69982;51.758;5.784;2023-07-29T20:36:40;100805.34;;;19.88;63.58
80627;BME280;69982;51.758;5.784;2023-07-29T20:39:06;100802.71;;;19.85;63.54
80627;BME280;69982;51.758;5.784;2023-07-29T20:41:32;100802.46;;;19.80;63.92
80627;BME280;69982;51.758;5.784;2023-07-29T20:43:59;100803.64;;;19.77;64.16
80627;BME280;69982;51.758;5.784;2023-07-29T20:46:25;100801.79;;;19.71;63.77
80627;BME280;69982;51.758;5.784;2023-07-29T20:48:51;100803.21;;;19.67;64.01
80627;BME280;69982;51.758;5.784;2023-07-29T20:51:18;100802.42;;;19.62;63.78
80627;BME280;69982;51.758;5.784;2023-07-29T20:53:45;100799.39;;;19.56;64.21
80627;BME280;69982;51.758;5.784;2023-07-29T20:56:13;100802.42;;;19.51;63.99
80627;BME280;69982;51.758;5.784;2023-07-29T20:58:40;100802.85;;;19.45;64.41
80627;BME280;69982;51.758;5.784;2023-07-29T21:01:06;100805.20;;;19.36;64.81
80627;BME280;69982;51.758;5.784;2023-07-29T21:03:32;100804.10;;;19.31;65.07
80627;BME280;69982;51.758;5.784;2023-07-29T21:05:58;100806.52;;;19.25;65.44
80627;BME280;69982;51.758;5.784;2023-07-29T21:08:24;100804.80;;;19.17;66.35
80627;BME280;69982;51.758;5.784;2023-07-29T21:10:52;100801.26;;;19.11;66.62
80627;BME280;69982;51.758;5.784;2023-07-29T21:13:19;100800.42;;;19.08;67.00
80627;BME280;69982;51.758;5.784;2023-07-29T21:15:52;100798.30;;;19.05;67.29
80627;BME280;69982;51.758;5.784;2023-07-29T21:18:19;100800.82;;;19.01;67.64
80627;BME280;69982;51.758;5.784;2023-07-29T21:20:46;100802.52;;;19.01;67.54
80627;BME280;69982;51.758;5.784;2023-07-29T21:23:13;100802.39;;;19.02;67.35
80627;BME280;69982;51.758;5.784;2023-07-29T21:25:40;100800.55;;;19.03;67.50
80627;BME280;69982;51.758;5.784;2023-07-29T21:28:06;100794.81;;;19.00;67.61
80627;BME280;69982;51.758;5.784;2023-07-29T21:30:32;100796.48;;;18.98;67.61
80627;BME280;69982;51.758;5.784;2023-07-29T21:32:58;100795.77;;;18.97;67.40
80627;BME280;69982;51.758;5.784;2023-07-29T21:35:25;100796.28;;;18.96;67.51
80627;BME280;69982;51.758;5.784;2023-07-29T21:37:51;100796.73;;;18.93;67.45
80627;BME280;69982;51.758;5.784;2023-07-29T21:40:17;100799.38;;;18.90;67.37
80627;BME280;69982;51.758;5.784;2023-07-29T21:42:43;100803.55;;;18.85;67.57
80627;BME280;69982;51.758;5.784;2023-07-29T21:45:10;100800.38;;;18.84;67.08
80627;BME280;69982;51.758;5.784;2023-07-29T21:47:36;100799.81;;;18.87;67.05
80627;BME280;69982;51.758;5.784;2023-07-29T21:50:03;100800.63;;;18.91;66.87
80627;BME280;69982;51.758;5.784;2023-07-29T21:52:32;100801.08;;;18.93;67.00
80627;BME280;69982;51.758;5.784;2023-07-29T21:54:58;100802.97;;;18.95;66.73
80627;BME280;69982;51.758;5.784;2023-07-29T21:57:25;100806.02;;;18.96;66.61
80627;BME280;69982;51.758;5.784;2023-07-29T21:59:51;100807.02;;;18.97;66.68
80627;BME280;69982;51.758;5.784;2023-07-29T22:02:18;100809.48;;;18.97;66.61
80627;BME280;69982;51.758;5.784;2023-07-29T22:04:44;100809.86;;;18.97;66.52
80627;BME280;69982;51.758;5.784;2023-07-29T22:07:11;100812.54;;;18.95;66.48
80627;BME280;69982;51.758;5.784;2023-07-29T22:09:37;100812.14;;;18.92;66.58
80627;BME280;69982;51.758;5.784;2023-07-29T22:12:04;100811.98;;;18.90;66.60
80627;BME280;69982;51.758;5.784;2023-07-29T22:14:30;100812.45;;;18.88;66.43
80627;BME280;69982;51.758;5.784;2023-07-29T22:16:58;100814.87;;;18.88;66.23
80627;BME280;69982;51.758;5.784;2023-07-29T22:19:24;100812.54;;;18.89;66.37
80627;BME280;69982;51.758;5.784;2023-07-29T22:21:50;100812.41;;;18.89;66.39
80627;BME280;69982;51.758;5.784;2023-07-29T22:24:18;100814.54;;;18.88;66.28
80627;BME280;69982;51.758;5.784;2023-07-29T22:26:44;100816.97;;;18.85;66.21
80627;BME280;69982;51.758;5.784;2023-07-29T22:29:10;100821.66;;;18.78;66.16
80627;BME280;69982;51.758;5.784;2023-07-29T22:31:37;100824.02;;;18.73;66.01
80627;BME280;69982;51.758;5.784;2023-07-29T22:34:03;100827.70;;;18.64;65.88
80627;BME280;69982;51.758;5.784;2023-07-29T22:36:30;100827.04;;;18.54;65.90
80627;BME280;69982;51.758;5.784;2023-07-29T22:38:56;100834.13;;;18.48;65.93
80627;BME280;69982;51.758;5.784;2023-07-29T22:41:23;100834.88;;;18.42;65.87
80627;BME280;69982;51.758;5.784;2023-07-29T22:43:49;100832.83;;;18.36;65.79
80627;BME280;69982;51.758;5.784;2023-07-29T22:46:15;100839.27;;;18.34;65.83
80627;BME280;69982;51.758;5.784;2023-07-29T22:48:41;100841.60;;;18.32;65.83
80627;BME280;69982;51.758;5.784;2023-07-29T22:51:08;100842.95;;;18.30;65.89
80627;BME280;69982;51.758;5.784;2023-07-29T22:53:34;100846.52;;;18.28;65.92
80627;BME280;69982;51.758;5.784;2023-07-29T22:56:00;100849.73;;;18.26;65.93
80627;BME280;69982;51.758;5.784;2023-07-29T22:58:26;100847.84;;;18.23;65.84
80627;BME280;69982;51.758;5.784;2023-07-29T23:00:55;100851.54;;;18.18;65.78
80627;BME280;69982;51.758;5.784;2023-07-29T23:03:21;100856.42;;;18.08;65.72
80627;BME280;69982;51.758;5.784;2023-07-29T23:05:48;100849.71;;;17.99;65.65
80627;BME280;69982;51.758;5.784;2023-07-29T23:08:15;100854.63;;;17.97;65.72
80627;BME280;69982;51.758;5.784;2023-07-29T23:10:41;100856.02;;;17.94;65.76
80627;BME280;69982;51.758;5.784;2023-07-29T23:13:08;100856.23;;;17.92;65.73
80627;BME280;69982;51.758;5.784;2023-07-29T23:15:36;100852.70;;;17.86;65.73
80627;BME280;69982;51.758;5.784;2023-07-29T23:18:04;100862.88;;;17.87;65.72
80627;BME280;69982;51.758;5.784;2023-07-29T23:20:31;100868.59;;;17.85;65.70
80627;BME280;69982;51.758;5.784;2023-07-29T23:22:59;100873.02;;;17.82;65.80
80627;BME280;69982;51.758;5.784;2023-07-29T23:25:26;100879.63;;;17.78;65.75
80627;BME280;69982;51.758;5.784;2023-07-29T23:27:53;100882.11;;;17.70;65.80
80627;BME280;69982;51.758;5.784;2023-07-29T23:30:19;100888.37;;;17.66;65.95
80627;BME280;69982;51.758;5.784;2023-07-29T23:32:45;100883.91;;;17.64;65.96
80627;BME280;69982;51.758;5.784;2023-07-29T23:35:12;100881.70;;;17.61;66.10
80627;BME280;69982;51.758;5.784;2023-07-29T23:37:38;100880.90;;;17.59;66.21
80627;BME280;69982;51.758;5.784;2023-07-29T23:40:05;100881.50;;;17.59;66.33
80627;BME280;69982;51.758;5.784;2023-07-29T23:42:32;100880.52;;;17.57;66.30
80627;BME280;69982;51.758;5.784;2023-07-29T23:44:58;100882.77;;;17.55;66.35
80627;BME280;69982;51.758;5.784;2023-07-29T23:47:24;100884.95;;;17.51;66.56
80627;BME280;69982;51.758;5.784;2023-07-29T23:49:51;100890.31;;;17.46;66.53
80627;BME280;69982;51.758;5.784;2023-07-29T23:52:17;100887.82;;;17.42;66.78
80627;BME280;69982;51.758;5.784;2023-07-29T23:54:43;100886.30;;;17.37;66.86
80627;BME280;69982;51.758;5.784;2023-07-29T23:57:09;100889.38;;;17.32;66.99
80627;BME280;69982;51.758;5.784;2023-07-29T23:59:36;100888.05;;;17.28;67.17
